createdAt,value
2022-08-12T00:00:27.358Z,1.30
2022-08-12T00:03:47.982Z,1.33
2022-08-12T00:07:09.398Z,1.10
2022-08-12T00:10:30.080Z,1.23
2022-08-12T00:13:50.842Z,1.10
2022-08-12T00:17:12.099Z,1.17
2022-08-12T00:20:32.523Z,1.30
2022-08-12T00:23:54.957Z,1.25
2022-08-12T00:27:16.509Z,2.35
2022-08-12T00:30:36.951Z,1.30
2022-08-12T00:33:57.191Z,1.20
2022-08-12T00:37:20.707Z,1.52
2022-08-12T00:40:42.588Z,1.30
2022-08-12T00:43:48.528Z,1.12
2022-08-12T00:46:56.894Z,1.17
2022-08-12T00:49:59.242Z,1.10
2022-08-12T00:53:02.505Z,1.12
2022-08-12T00:56:06.430Z,1.27
2022-08-12T00:59:09.871Z,1.20
2022-08-12T01:02:22.670Z,1.20
2022-08-12T01:05:44.552Z,1.10
2022-08-12T01:09:05.418Z,1.15
2022-08-12T01:12:10.100Z,1.35
2022-08-12T01:15:14.765Z,1.40
2022-08-12T01:18:26.781Z,1.60
2022-08-12T01:21:28.519Z,1.40
2022-08-12T01:25:18.879Z,1.40
2022-08-12T01:28:21.218Z,1.67
2022-08-12T01:31:23.374Z,1.30
2022-08-12T01:34:37.625Z,1.42
2022-08-12T01:38:02.931Z,1.37
2022-08-12T01:41:08.940Z,1.60
2022-08-12T01:44:13.808Z,1.30
2022-08-12T01:47:30.813Z,1.50
2022-08-12T01:50:50.869Z,1.70
2022-08-12T01:54:07.151Z,1.48
2022-08-12T01:57:11.087Z,1.92
2022-08-12T02:00:16.311Z,1.50
2022-08-12T02:04:25.074Z,1.50
2022-08-12T02:08:10.614Z,1.35
2022-08-12T02:11:34.860Z,1.67
2022-08-12T02:14:36.717Z,1.42
2022-08-12T02:18:03.113Z,1.55
2022-08-12T02:21:12.513Z,1.42
2022-08-12T02:24:19.996Z,1.45
2022-08-12T02:27:24.884Z,1.60
2022-08-12T02:30:33.210Z,1.50
2022-08-12T02:33:47.971Z,1.70
2022-08-12T02:36:53.889Z,1.48
2022-08-12T02:39:59.139Z,1.60
2022-08-12T02:43:06.521Z,1.42
2022-08-12T02:49:23.909Z,1.80
2022-08-12T02:52:27.446Z,1.60
2022-08-12T02:55:34.855Z,1.45
2022-08-12T02:58:41.294Z,1.40
2022-08-12T03:01:50.837Z,1.40
2022-08-12T03:04:57.723Z,1.70
2022-08-12T03:08:04.525Z,1.40
2022-08-12T03:11:27.156Z,1.35
2022-08-12T03:14:30.377Z,1.50
2022-08-12T03:17:45.207Z,1.60
2022-08-12T03:20:47.552Z,1.75
2022-08-12T03:23:49.498Z,1.65
2022-08-12T03:26:53.739Z,1.73
2022-08-12T03:29:57.876Z,1.40
2022-08-12T03:33:02.156Z,1.70
2022-08-12T03:36:07.815Z,1.50
2022-08-12T03:39:18.898Z,1.60
2022-08-12T03:42:35.565Z,1.77
2022-08-12T03:45:56.846Z,1.83
2022-08-12T03:49:17.845Z,2.08
2022-08-12T03:52:38.679Z,1.60
2022-08-12T03:55:59.578Z,1.58
2022-08-12T03:59:21.437Z,1.48
2022-08-12T04:02:24.729Z,1.90
2022-08-12T04:05:54.473Z,1.85
2022-08-12T04:08:54.474Z,1.58
2022-08-12T04:12:14.885Z,1.77
2022-08-12T04:15:20.022Z,1.92
2022-08-12T04:18:23.587Z,1.60
2022-08-12T04:21:25.983Z,1.70
2022-08-12T04:24:30.354Z,1.75
2022-08-12T04:27:32.794Z,1.60
2022-08-12T04:30:36.655Z,1.80
2022-08-12T04:33:39.922Z,1.58
2022-08-12T04:36:43.107Z,1.95
2022-08-12T04:39:46.527Z,2.00
2022-08-12T04:42:48.581Z,1.77
2022-08-12T04:45:50.250Z,2.20
2022-08-12T04:48:52.954Z,2.10
2022-08-12T04:51:59.269Z,2.40
2022-08-12T04:55:03.068Z,2.40
2022-08-12T04:58:06.580Z,2.30
2022-08-12T05:01:09.116Z,2.28
2022-08-12T05:04:11.275Z,2.10
2022-08-12T05:07:13.520Z,2.12
2022-08-12T05:10:16.733Z,1.92
2022-08-12T05:13:25.515Z,1.90
2022-08-12T05:16:32.403Z,2.00
2022-08-12T05:19:36.102Z,1.90
2022-08-12T05:22:39.238Z,1.80
2022-08-12T05:25:43.264Z,1.80
2022-08-12T05:28:46.290Z,1.67
2022-08-12T05:31:55.985Z,1.75
2022-08-12T05:34:57.778Z,1.95
2022-08-12T05:38:17.956Z,2.60
2022-08-12T05:41:20.591Z,3.65
2022-08-12T05:44:22.406Z,2.50
2022-08-12T05:47:24.398Z,1.90
2022-08-12T05:50:45.921Z,2.00
2022-08-12T05:53:48.360Z,1.80
2022-08-12T05:56:51.746Z,1.90
2022-08-12T05:59:53.935Z,2.00
2022-08-12T06:03:02.564Z,1.70
2022-08-12T06:06:07.321Z,1.90
2022-08-12T06:09:11.576Z,2.03
2022-08-12T06:12:14.238Z,1.85
2022-08-12T06:15:17.352Z,1.90
2022-08-12T06:18:19.457Z,1.90
2022-08-12T06:21:23.490Z,1.70
2022-08-12T06:24:28.850Z,1.85
2022-08-12T06:27:30.487Z,2.12
2022-08-12T06:30:38.415Z,2.08
2022-08-12T06:34:00.233Z,2.30
2022-08-12T06:37:07.410Z,1.75
2022-08-12T06:40:10.656Z,1.75
2022-08-12T06:43:14.233Z,2.15
2022-08-12T06:46:15.884Z,2.10
2022-08-12T06:49:17.859Z,2.03
2022-08-12T06:52:25.187Z,1.95
2022-08-12T06:55:27.138Z,1.80
2022-08-12T06:58:30.693Z,2.03
2022-08-12T07:01:32.773Z,2.10
2022-08-12T07:04:39.242Z,2.50
2022-08-12T07:07:41.878Z,2.42
2022-08-12T07:10:59.183Z,1.80
2022-08-12T07:14:13.225Z,2.10
2022-08-12T07:17:15.203Z,1.90
2022-08-12T07:20:42.506Z,1.98
2022-08-12T07:23:41.695Z,2.05
2022-08-12T07:26:44.804Z,2.50
2022-08-12T07:30:04.049Z,2.58
2022-08-12T07:33:10.771Z,2.50
2022-08-12T07:36:14.635Z,2.40
2022-08-12T07:39:16.625Z,2.08
2022-08-12T07:42:18.839Z,2.10
2022-08-12T07:45:23.215Z,2.95
2022-08-12T07:48:25.401Z,1.90
2022-08-12T07:51:28.399Z,2.08
2022-08-12T07:54:30.024Z,1.95
2022-08-12T07:57:35.223Z,2.28
2022-08-12T08:00:40.667Z,2.60
2022-08-12T08:04:03.010Z,2.40
2022-08-12T08:07:07.630Z,2.40
2022-08-12T08:10:11.636Z,1.85
2022-08-12T08:13:13.744Z,2.53
2022-08-12T08:16:15.982Z,2.35
2022-08-12T08:19:24.213Z,2.17
2022-08-12T08:22:42.039Z,2.10
2022-08-12T08:25:45.877Z,2.10
2022-08-12T08:28:47.888Z,2.65
2022-08-12T08:31:54.225Z,2.30
2022-08-12T08:34:55.881Z,2.80
2022-08-12T08:38:32.074Z,1.85
2022-08-12T08:45:17.771Z,2.10
2022-08-12T08:48:19.727Z,2.25
2022-08-12T08:51:25.342Z,2.20
2022-08-12T08:54:29.033Z,2.22
2022-08-12T08:57:43.887Z,2.55
2022-08-12T09:00:49.841Z,1.50
2022-08-12T09:07:43.916Z,2.20
2022-08-12T09:10:38.811Z,2.35
2022-08-12T09:14:12.623Z,2.25
2022-08-12T09:17:08.887Z,2.10
2022-08-12T09:20:16.255Z,2.10
2022-08-12T09:23:58.907Z,2.03
2022-08-12T09:26:46.552Z,1.75
2022-08-12T09:30:11.093Z,1.55
2022-08-12T09:33:19.447Z,1.58
2022-08-12T09:37:00.817Z,1.42
2022-08-12T09:40:01.743Z,1.67
2022-08-12T09:43:28.642Z,1.60
2022-08-12T09:46:34.675Z,1.50
2022-08-12T09:49:42.503Z,1.80
2022-08-12T09:52:46.311Z,1.25
2022-08-12T09:55:59.406Z,1.60
2022-08-12T09:59:11.809Z,1.50
2022-08-12T10:02:44.194Z,1.52
2022-08-12T10:06:20.422Z,1.80
2022-08-12T10:09:02.759Z,1.30
2022-08-12T10:12:32.706Z,1.23
2022-08-12T10:16:01.830Z,1.40
2022-08-12T10:18:59.934Z,1.10
2022-08-12T10:22:02.048Z,1.20
2022-08-12T10:25:23.084Z,1.40
2022-08-12T10:29:03.513Z,1.40
2022-08-12T10:33:02.438Z,1.10
2022-08-12T10:35:46.816Z,1.40
2022-08-12T10:38:49.149Z,1.40
2022-08-12T10:42:29.378Z,1.00
2022-08-12T10:45:31.861Z,1.33
2022-08-12T10:48:34.818Z,1.17
2022-08-12T10:52:02.649Z,1.40
2022-08-12T10:55:00.130Z,1.40
2022-08-12T10:58:27.608Z,1.50
2022-08-12T11:01:50.213Z,1.58
2022-08-12T11:04:49.923Z,1.33
2022-08-12T11:08:38.874Z,1.35
2022-08-12T11:12:07.775Z,1.20
2022-08-12T11:14:49.356Z,1.50
2022-08-12T11:17:55.680Z,1.62
2022-08-12T11:20:59.802Z,1.20
2022-08-12T11:24:02.007Z,1.17
2022-08-12T11:27:11.027Z,1.40
2022-08-12T11:30:30.609Z,1.35
2022-08-12T11:34:05.579Z,1.30
2022-08-12T11:37:07.376Z,1.37
2022-08-12T11:40:28.764Z,1.80
2022-08-12T11:43:31.858Z,1.50
2022-08-12T11:46:54.876Z,1.48
2022-08-12T11:49:56.958Z,1.30
2022-08-12T11:52:58.797Z,1.20
2022-08-12T11:56:01.096Z,1.23
2022-08-12T12:02:03.158Z,1.25
2022-08-12T12:02:24.906Z,1.50
2022-08-12T12:05:28.384Z,1.33
2022-08-12T12:08:43.343Z,1.45
2022-08-12T12:11:49.687Z,1.80
2022-08-12T12:14:54.747Z,1.08
2022-08-12T12:17:57.813Z,1.20
2022-08-12T12:21:05.513Z,1.40
2022-08-12T12:24:10.420Z,0.95
2022-08-12T12:27:12.433Z,1.30
2022-08-12T12:30:29.249Z,1.10
2022-08-12T12:33:57.380Z,1.30
2022-08-12T12:36:54.706Z,1.08
2022-08-12T12:39:59.911Z,1.00
2022-08-12T12:43:05.012Z,1.45
2022-08-12T12:46:08.761Z,1.10
2022-08-12T12:49:11.117Z,1.10
2022-08-12T12:52:19.408Z,1.35
2022-08-12T12:55:23.948Z,1.30
2022-08-12T12:58:34.269Z,1.10
2022-08-12T13:01:42.062Z,1.30
2022-08-12T13:04:54.851Z,1.33
2022-08-12T13:08:01.752Z,1.20
2022-08-12T13:11:06.088Z,1.00
2022-08-12T13:14:12.897Z,1.10
2022-08-12T13:18:02.406Z,1.40
2022-08-12T13:20:59.482Z,1.45
2022-08-12T13:24:09.990Z,1.20
2022-08-12T13:27:12.759Z,1.27
2022-08-12T13:30:20.479Z,0.90
2022-08-12T13:33:28.607Z,1.15
2022-08-12T13:36:31.023Z,1.05
2022-08-12T13:39:33.255Z,1.25
2022-08-12T13:42:35.557Z,1.20
2022-08-12T13:45:37.174Z,1.15
2022-08-12T13:48:39.100Z,1.27
2022-08-12T13:51:53.065Z,1.40
2022-08-12T13:54:56.664Z,1.30
2022-08-12T13:57:59.925Z,1.23
2022-08-12T14:01:04.696Z,1.20
2022-08-12T14:04:06.732Z,1.48
2022-08-12T14:07:13.384Z,1.15
2022-08-12T14:10:37.060Z,1.12
2022-08-12T14:14:03.733Z,1.10
2022-08-12T14:17:05.722Z,4.82
2022-08-12T14:20:13.709Z,1.40
2022-08-12T14:24:05.307Z,1.20
2022-08-12T14:26:39.184Z,1.15
2022-08-12T14:30:04.483Z,1.10
2022-08-12T14:33:09.113Z,1.27
2022-08-12T14:36:13.494Z,1.00
2022-08-12T14:39:17.811Z,1.00
2022-08-12T14:42:20.261Z,1.15
2022-08-12T14:45:22.924Z,1.10
2022-08-12T14:48:26.155Z,1.40
2022-08-12T14:52:43.274Z,1.50
2022-08-12T14:58:14.300Z,1.30
2022-08-12T15:01:37.966Z,1.17
2022-08-12T15:04:39.876Z,1.42
2022-08-12T15:07:50.347Z,1.27
2022-08-12T15:10:55.252Z,1.62
2022-08-12T15:13:57.769Z,1.37
2022-08-12T15:17:01.071Z,1.33
2022-08-12T15:20:31.328Z,2.90
2022-08-12T15:23:29.254Z,1.85
2022-08-12T15:26:40.876Z,2.20
2022-08-12T15:29:42.765Z,1.20
2022-08-12T15:32:48.921Z,1.40
2022-08-12T15:35:53.925Z,1.48
2022-08-12T15:38:56.217Z,1.55
2022-08-12T15:42:01.884Z,1.87
2022-08-12T15:45:08.675Z,1.13
2022-08-12T15:51:59.658Z,1.52
2022-08-12T15:55:05.869Z,1.40
2022-08-12T15:58:16.931Z,1.25
2022-08-12T16:01:20.065Z,1.55
2022-08-12T16:04:21.719Z,1.20
2022-08-12T16:07:26.209Z,1.90
2022-08-12T16:10:33.531Z,1.20
2022-08-12T16:13:36.574Z,1.30
2022-08-12T16:16:38.665Z,1.20
2022-08-12T16:20:03.198Z,1.20
2022-08-12T16:23:26.093Z,1.20
2022-08-12T16:26:35.945Z,1.00
2022-08-12T16:29:53.504Z,1.10
2022-08-12T16:32:58.467Z,1.20
2022-08-12T16:36:00.589Z,1.20
2022-08-12T16:39:03.841Z,1.52
2022-08-12T16:42:06.507Z,1.20
2022-08-12T16:45:10.613Z,1.25
2022-08-12T16:48:33.848Z,1.65
2022-08-12T16:51:40.263Z,1.60
2022-08-12T16:54:44.229Z,2.05
2022-08-12T16:57:49.365Z,1.27
2022-08-12T17:00:51.872Z,1.12
2022-08-12T17:04:08.485Z,1.23
2022-08-12T17:10:35.873Z,1.48
2022-08-12T17:13:42.893Z,1.87
2022-08-12T17:16:55.962Z,1.73
2022-08-12T17:20:30.602Z,1.58
2022-08-12T17:26:54.059Z,1.05
2022-08-12T17:30:02.053Z,1.60
2022-08-12T17:33:11.099Z,1.58
2022-08-12T17:36:13.745Z,1.33
2022-08-12T17:39:16.645Z,1.48
2022-08-12T17:42:34.119Z,1.80
2022-08-12T17:45:42.279Z,2.15
2022-08-12T17:48:55.305Z,2.20
2022-08-12T17:52:02.028Z,1.98
2022-08-12T17:55:07.050Z,1.60
2022-08-12T17:58:37.249Z,1.30
2022-08-12T18:01:45.407Z,1.55
2022-08-12T18:05:04.808Z,1.50
2022-08-12T18:08:11.985Z,2.80
2022-08-12T18:12:04.887Z,2.30
2022-08-12T18:15:00.645Z,1.95
2022-08-12T18:18:03.861Z,1.67
2022-08-12T18:21:10.896Z,1.73
2022-08-12T18:24:21.614Z,1.83
2022-08-12T18:27:30.107Z,2.90
2022-08-12T18:30:36.371Z,3.58
2022-08-12T18:33:45.791Z,2.12
2022-08-12T18:36:50.288Z,1.80
2022-08-12T18:40:12.405Z,1.80
2022-08-12T18:43:19.664Z,2.17
2022-08-12T18:46:29.277Z,2.37
2022-08-12T18:49:38.677Z,2.40
2022-08-12T18:52:48.447Z,2.55
2022-08-12T18:55:57.358Z,1.70
2022-08-12T18:59:02.378Z,1.52
2022-08-12T19:02:21.986Z,1.75
2022-08-12T19:05:54.091Z,1.67
2022-08-12T19:08:49.343Z,1.58
2022-08-12T19:12:10.767Z,1.52
2022-08-12T19:15:24.362Z,2.72
2022-08-12T19:18:29.505Z,2.75
2022-08-12T19:21:37.087Z,3.40
2022-08-12T19:28:01.079Z,3.22
2022-08-12T19:31:55.629Z,2.97
2022-08-12T19:38:27.106Z,2.97
2022-08-12T19:41:42.874Z,3.40
2022-08-12T19:44:52.692Z,4.10
2022-08-12T19:47:56.255Z,2.80
2022-08-12T19:50:58.891Z,3.08
2022-08-12T19:54:10.641Z,3.00
2022-08-12T19:57:15.025Z,2.80
2022-08-12T20:00:20.068Z,2.80
2022-08-12T20:03:40.311Z,2.50
2022-08-12T20:06:45.249Z,3.03
2022-08-12T20:09:54.537Z,2.30
2022-08-12T20:13:18.133Z,2.72
2022-08-12T20:16:50.669Z,2.10
2022-08-12T20:20:01.671Z,3.03
2022-08-12T20:23:08.645Z,3.50
2022-08-12T20:26:11.518Z,2.53
2022-08-12T20:29:13.890Z,1.42
2022-08-12T20:32:15.760Z,1.85
2022-08-12T20:35:24.557Z,2.33
2022-08-12T20:38:27.990Z,2.40
2022-08-12T20:41:34.700Z,3.28
2022-08-12T20:44:40.030Z,2.45
2022-08-12T20:47:47.353Z,2.85
2022-08-12T20:51:04.682Z,2.72
2022-08-12T20:54:08.841Z,2.80
2022-08-12T20:57:11.032Z,3.12
2022-08-12T21:00:28.269Z,3.37
2022-08-12T21:03:52.319Z,3.42
2022-08-12T21:07:09.709Z,4.07
2022-08-12T21:10:12.725Z,3.17
2022-08-12T21:13:20.371Z,3.33
2022-08-12T21:16:35.958Z,3.03
2022-08-12T21:19:52.903Z,2.95
2022-08-12T21:22:56.102Z,2.80
2022-08-12T21:26:01.600Z,3.33
2022-08-12T21:29:12.681Z,3.60
2022-08-12T21:32:39.761Z,3.60
2022-08-12T21:35:41.471Z,3.67
2022-08-12T21:38:43.156Z,3.80
2022-08-12T21:41:50.252Z,3.83
2022-08-12T21:45:47.731Z,3.87
2022-08-12T21:48:15.692Z,3.62
2022-08-12T21:51:23.267Z,3.72
2022-08-12T21:54:25.762Z,3.80
2022-08-12T21:57:36.291Z,4.40
2022-08-12T22:00:50.271Z,4.45
2022-08-12T22:04:12.472Z,5.30
2022-08-12T22:07:18.582Z,5.62
2022-08-12T22:10:28.433Z,5.85
2022-08-12T22:14:02.218Z,6.05
2022-08-12T22:16:55.927Z,5.50
2022-08-12T22:19:58.041Z,5.45
2022-08-12T22:23:00.366Z,4.47
2022-08-12T22:26:05.723Z,4.62
2022-08-12T22:29:27.799Z,4.82
2022-08-12T22:32:30.266Z,4.95
2022-08-12T22:35:55.504Z,4.90
2022-08-12T22:38:59.669Z,4.93
2022-08-12T22:42:20.184Z,4.82
2022-08-12T22:45:48.273Z,5.00
2022-08-12T22:48:58.003Z,5.00
2022-08-12T22:52:06.867Z,5.15
2022-08-12T22:55:12.579Z,5.45
2022-08-12T22:58:14.800Z,5.15
2022-08-12T23:01:21.491Z,5.53
2022-08-12T23:04:39.924Z,5.57
2022-08-12T23:07:59.141Z,6.00
2022-08-12T23:14:12.146Z,5.97
2022-08-12T23:17:21.184Z,5.55
2022-08-12T23:20:35.704Z,6.00
2022-08-12T23:24:09.484Z,6.00
2022-08-12T23:27:19.961Z,6.25
2022-08-12T23:30:31.163Z,6.80
2022-08-12T23:34:00.600Z,7.07
2022-08-12T23:36:59.657Z,5.78
2022-08-12T23:40:14.019Z,6.47
2022-08-12T23:43:17.942Z,6.82
2022-08-12T23:46:22.795Z,6.75
2022-08-12T23:49:57.699Z,7.15
2022-08-12T23:52:51.629Z,6.28
2022-08-12T23:55:56.674Z,6.62
2022-08-12T23:59:00.238Z,6.60
